Time;durP1;ratioP1;P1;durP2;ratioP2;P2;SDS_P1;SDS_P2;PMS_P1;PMS_P2;Temp;Humidity;BMP_temperature;BMP_pressure;BME280_temperature;BME280_humidity;BME280_pressure;Samples;Min_cycle;Max_cycle;Signal;HPM_P1;HPM_P2
2022/11/29 00:01:34;;;;;;;1.55;1.20;;;7.00;99.90;;;;;;5043993;28;20109;-77
2022/11/29 00:04:00;;;;;;;1.65;1.13;;;7.00;99.90;;;;;;5059327;28;20044;-78
2022/11/29 00:06:29;;;;;;;1.33;1.10;;;7.00;99.90;;;;;;5060440;28;20086;-77
2022/11/29 00:09:00;;;;;;;1.50;1.20;;;7.00;99.90;;;;;;5043925;28;20131;-77
2022/11/29 00:14:15;;;;;;;1.58;1.27;;;7.10;99.90;;;;;;5059541;28;20407;-77
2022/11/29 00:16:42;;;;;;;2.75;1.50;;;7.10;99.90;;;;;;5043720;28;20139;-77
2022/11/29 00:19:10;;;;;;;3.03;2.58;;;7.10;99.90;;;;;;5026641;28;20373;-77
2022/11/29 00:21:36;;;;;;;3.47;2.63;;;7.20;99.90;;;;;;5043673;28;20062;-77
2022/11/29 00:24:03;;;;;;;4.28;2.78;;;7.20;99.90;;;;;;5027115;28;20155;-75
2022/11/29 00:26:30;;;;;;;4.10;2.63;;;7.20;99.90;;;;;;5027141;28;20080;-75
2022/11/29 00:28:57;;;;;;;3.65;2.40;;;7.30;99.90;;;;;;5043391;28;20057;-75
2022/11/29 00:31:26;;;;;;;3.72;2.53;;;7.30;99.90;;;;;;5059776;28;20059;-75
2022/11/29 00:33:52;;;;;;;4.07;2.58;;;7.40;99.90;;;;;;5059213;28;20665;-75
2022/11/29 00:36:19;;;;;;;4.35;3.47;;;7.40;99.90;;;;;;5026666;28;20480;-75
2022/11/29 00:38:46;;;;;;;5.28;3.55;;;7.40;99.90;;;;;;5061924;28;20057;-75
2022/11/29 00:41:13;;;;;;;5.25;3.80;;;7.40;99.90;;;;;;5059510;28;20051;-77
2022/11/29 00:43:39;;;;;;;7.53;6.18;;;7.50;99.90;;;;;;5060822;28;20040;-77
2022/11/29 00:46:06;;;;;;;8.48;6.15;;;7.50;99.90;;;;;;5043172;28;20052;-77
2022/11/29 00:48:33;;;;;;;6.78;5.43;;;7.50;99.90;;;;;;5024824;28;20118;-77
2022/11/29 00:51:01;;;;;;;5.90;4.72;;;7.50;99.90;;;;;;5060421;28;20049;-77
2022/11/29 00:53:27;;;;;;;5.93;4.60;;;7.50;99.90;;;;;;5059681;28;20527;-77
2022/11/29 00:55:54;;;;;;;5.82;4.82;;;7.60;99.90;;;;;;5043259;28;20194;-77
2022/11/29 00:58:21;;;;;;;6.88;4.60;;;7.60;99.90;;;;;;5059271;28;20056;-74
2022/11/29 01:00:48;;;;;;;6.57;5.30;;;7.60;99.90;;;;;;5059987;28;20057;-75
2022/11/29 01:03:15;;;;;;;6.60;4.90;;;7.60;99.90;;;;;;5058576;28;20138;-74
2022/11/29 01:05:42;;;;;;;6.75;5.10;;;7.60;99.90;;;;;;5043011;28;20138;-75
2022/11/29 01:08:09;;;;;;;6.97;4.90;;;7.60;99.90;;;;;;5063134;28;20071;-74
2022/11/29 01:10:36;;;;;;;5.40;4.20;;;7.60;99.90;;;;;;5046621;28;20048;-74
2022/11/29 01:13:02;;;;;;;6.43;4.80;;;7.60;99.90;;;;;;5061837;28;20060;-75
2022/11/29 01:15:29;;;;;;;5.32;4.30;;;7.50;99.90;;;;;;5063183;28;20051;-75
2022/11/29 01:17:56;;;;;;;5.63;4.15;;;7.60;99.90;;;;;;5045389;28;20128;-75
2022/11/29 01:20:23;;;;;;;4.82;3.85;;;7.60;99.90;;;;;;5063415;28;20163;-74
2022/11/29 01:22:50;;;;;;;5.13;4.07;;;7.60;99.90;;;;;;5045750;28;20057;-75
2022/11/29 01:25:18;;;;;;;5.50;4.22;;;7.70;99.90;;;;;;5030119;28;20049;-75
2022/11/29 01:27:45;;;;;;;5.43;3.92;;;7.70;99.90;;;;;;5064335;28;20076;-74
2022/11/29 01:30:12;;;;;;;4.63;3.60;;;7.70;99.90;;;;;;5051202;28;20149;-75
2022/11/29 01:32:39;;;;;;;4.82;3.55;;;7.70;99.90;;;;;;5049065;28;20063;-75
2022/11/29 01:35:06;;;;;;;6.30;4.15;;;7.70;99.90;;;;;;5067817;28;20283;-75
2022/11/29 01:37:32;;;;;;;4.85;3.75;;;7.70;99.90;;;;;;5045830;28;20053;-75
2022/11/29 01:39:59;;;;;;;4.43;3.20;;;7.70;99.90;;;;;;5030359;28;20068;-74
2022/11/29 01:42:26;;;;;;;4.22;3.40;;;7.70;99.90;;;;;;5059366;28;20059;-75
2022/11/29 01:45:07;;;;;;;5.38;3.45;;;7.70;99.90;;;;;;5049993;28;20123;-75
2022/11/29 01:47:35;;;;;;;4.78;3.20;;;7.70;99.90;;;;;;5066255;28;20120;-75
2022/11/29 01:50:02;;;;;;;6.50;4.53;;;7.70;99.90;;;;;;5050621;28;20058;-75
2022/11/29 01:52:30;;;;;;;3.88;3.22;;;7.70;99.90;;;;;;5033537;28;20106;-74
2022/11/29 01:55:00;;;;;;;4.13;3.25;;;7.80;99.90;;;;;;5050534;28;20348;-75
2022/11/29 01:57:27;;;;;;;4.10;2.75;;;7.80;99.90;;;;;;5049291;28;20137;-74
2022/11/29 01:59:55;;;;;;;3.58;2.80;;;7.90;99.90;;;;;;5033755;28;20409;-75
2022/11/29 02:02:31;;;;;;;4.97;3.08;;;7.90;99.90;;;;;;5050011;28;20048;-75
2022/11/29 02:04:58;;;;;;;3.33;2.28;;;7.90;99.90;;;;;;5049835;28;20044;-75
2022/11/29 02:07:25;;;;;;;2.95;2.38;;;8.00;99.90;;;;;;5046668;28;20390;-75
2022/11/29 02:09:52;;;;;;;3.25;2.17;;;8.00;99.90;;;;;;5064423;28;20063;-75
2022/11/29 02:12:38;;;;;;;3.67;2.55;;;8.00;99.90;;;;;;5064377;28;20095;-75
2022/11/29 02:15:31;;;;;;;3.78;3.22;;;8.00;99.90;;;;;;5046423;28;20564;-75
2022/11/29 02:18:14;;;;;;;5.60;3.03;;;8.00;99.90;;;;;;5046014;28;20102;-75
2022/11/29 02:20:59;;;;;;;4.33;3.30;;;8.00;99.90;;;;;;5050354;28;20356;-74
2022/11/29 02:23:32;;;;;;;4.07;2.53;;;8.00;99.90;;;;;;5067174;28;20587;-75
2022/11/29 02:26:17;;;;;;;3.97;3.03;;;8.00;99.90;;;;;;5065347;28;20060;-74
2022/11/29 02:29:05;;;;;;;3.75;2.55;;;8.00;99.90;;;;;;5061925;28;20079;-77
2022/11/29 02:31:50;;;;;;;4.32;3.17;;;8.00;99.90;;;;;;5058601;28;20056;-75
2022/11/29 02:34:49;;;;;;;4.22;3.05;;;8.00;99.90;;;;;;5049492;28;20479;-74
2022/11/29 02:37:28;;;;;;;4.00;3.10;;;8.00;99.90;;;;;;5047313;28;20080;-75
2022/11/29 02:40:07;;;;;;;4.80;3.30;;;8.00;99.90;;;;;;5065594;28;20053;-75
2022/11/29 02:42:49;;;;;;;7.22;5.47;;;8.00;99.90;;;;;;5062777;28;20223;-75
2022/11/29 02:45:43;;;;;;;7.75;5.20;;;8.00;99.90;;;;;;5067624;28;20135;-74
2022/11/29 02:48:23;;;;;;;7.28;4.40;;;8.00;99.90;;;;;;5067107;28;20400;-75
2022/11/29 02:51:05;;;;;;;7.28;5.20;;;7.90;99.90;;;;;;5065391;28;20055;-75
2022/11/29 02:53:46;;;;;;;6.82;5.18;;;7.90;99.90;;;;;;5066551;28;20049;-75
2022/11/29 02:56:34;;;;;;;7.93;4.57;;;7.90;99.90;;;;;;5033024;28;20052;-74
2022/11/29 02:59:16;;;;;;;6.43;4.40;;;7.90;99.90;;;;;;5066304;28;20056;-74
2022/11/29 03:02:11;;;;;;;6.43;4.53;;;7.90;99.90;;;;;;5034244;28;20050;-75
2022/11/29 03:05:11;;;;;;;7.68;5.22;;;7.90;99.90;;;;;;5042849;28;20086;-74
2022/11/29 03:07:54;;;;;;;7.28;4.60;;;8.00;99.90;;;;;;5049701;28;20157;-75
2022/11/29 03:10:21;;;;;;;8.73;5.07;;;7.90;99.90;;;;;;5050077;28;20446;-74
2022/11/29 03:12:49;;;;;;;7.22;5.15;;;7.90;99.90;;;;;;5065158;28;20485;-75
2022/11/29 03:15:21;;;;;;;6.95;5.15;;;7.90;99.90;;;;;;5032456;28;20136;-74
2022/11/29 03:18:13;;;;;;;6.80;5.05;;;7.90;99.90;;;;;;5065853;28;20051;-74
2022/11/29 03:20:54;;;;;;;6.63;4.75;;;7.90;99.90;;;;;;5065114;28;20063;-75
2022/11/29 03:23:23;;;;;;;5.35;4.07;;;7.90;99.90;;;;;;5064812;28;20060;-75
2022/11/29 03:26:09;;;;;;;7.13;4.80;;;7.90;99.90;;;;;;5047733;28;20044;-75
2022/11/29 03:28:50;;;;;;;7.40;4.25;;;7.90;99.90;;;;;;5043833;28;20095;-75
2022/11/29 03:31:26;;;;;;;5.93;4.32;;;7.90;99.90;;;;;;5044908;28;20072;-74
2022/11/29 03:34:13;;;;;;;8.15;5.78;;;7.90;99.90;;;;;;5061574;28;20224;-74
2022/11/29 03:36:55;;;;;;;7.63;5.75;;;7.80;99.90;;;;;;5045690;28;20624;-74
2022/11/29 03:39:51;;;;;;;6.32;4.85;;;7.80;99.90;;;;;;5060130;28;20044;-75
2022/11/29 03:42:28;;;;;;;6.72;5.25;;;7.80;99.90;;;;;;5060628;28;20056;-75
2022/11/29 03:45:09;;;;;;;8.18;5.68;;;7.80;99.90;;;;;;5031699;28;20060;-75
2022/11/29 03:47:41;;;;;;;7.53;5.15;;;7.80;99.90;;;;;;5063438;28;20128;-74
2022/11/29 03:50:13;;;;;;;7.70;5.10;;;7.80;99.90;;;;;;5062793;28;20050;-74
2022/11/29 03:52:50;;;;;;;6.47;4.68;;;7.80;99.90;;;;;;5046711;28;20084;-74
2022/11/29 03:55:20;;;;;;;7.88;5.10;;;7.80;99.90;;;;;;5064012;28;20067;-74
2022/11/29 03:58:12;;;;;;;8.27;5.53;;;7.80;99.90;;;;;;5062775;28;20052;-75
2022/11/29 04:00:48;;;;;;;6.88;5.00;;;7.80;99.90;;;;;;5060907;28;20528;-74
2022/11/29 04:03:59;;;;;;;8.35;5.20;;;7.80;99.90;;;;;;5055984;28;20139;-74
2022/11/29 04:06:53;;;;;;;6.22;4.97;;;7.90;99.90;;;;;;5063981;28;20448;-75
2022/11/29 04:09:56;;;;;;;5.28;3.65;;;7.80;99.90;;;;;;5064912;28;20131;-75
2022/11/29 04:12:41;;;;;;;4.97;3.97;;;7.80;99.90;;;;;;5047409;28;20128;-75
2022/11/29 04:15:14;;;;;;;4.65;4.20;;;7.80;99.90;;;;;;5065741;28;20101;-74
2022/11/29 04:18:07;;;;;;;6.60;4.38;;;7.90;99.90;;;;;;5064602;28;20048;-75
2022/11/29 04:20:42;;;;;;;7.80;5.15;;;7.80;99.90;;;;;;5063414;28;20131;-75
2022/11/29 04:23:37;;;;;;;7.03;4.85;;;7.80;99.90;;;;;;5065344;28;20079;-75
2022/11/29 04:26:27;;;;;;;7.82;4.50;;;7.80;99.90;;;;;;5057153;28;20094;-75
2022/11/29 04:29:06;;;;;;;7.40;5.32;;;7.80;99.90;;;;;;5062862;28;20055;-74
2022/11/29 04:31:55;;;;;;;6.53;4.78;;;7.80;99.90;;;;;;5065501;28;20053;-74
2022/11/29 04:34:40;;;;;;;7.57;5.57;;;7.80;99.90;;;;;;5064226;28;20044;-74
2022/11/29 04:37:45;;;;;;;6.20;5.00;;;7.80;99.90;;;;;;5062487;28;20136;-75
2022/11/29 04:40:30;;;;;;;7.60;6.13;;;7.80;99.90;;;;;;5065278;28;20064;-75
2022/11/29 04:42:57;;;;;;;7.72;6.00;;;7.70;99.90;;;;;;5046523;28;20053;-74
2022/11/29 04:45:39;;;;;;;7.70;5.97;;;7.80;99.90;;;;;;5065181;28;20079;-75
2022/11/29 04:48:33;;;;;;;6.40;5.68;;;7.70;99.90;;;;;;5062452;28;20171;-74
2022/11/29 04:51:06;;;;;;;7.32;5.55;;;7.70;99.90;;;;;;5060731;28;20139;-75
2022/11/29 04:53:36;;;;;;;7.10;5.30;;;7.70;99.90;;;;;;5064292;28;20064;-74
2022/11/29 04:56:15;;;;;;;7.28;5.22;;;7.70;99.90;;;;;;5063396;28;20131;-75
2022/11/29 04:58:58;;;;;;;8.93;5.72;;;7.70;99.90;;;;;;5045441;28;20041;-74
2022/11/29 05:01:38;;;;;;;6.03;4.63;;;7.70;99.90;;;;;;5043479;28;20124;-75
2022/11/29 05:04:26;;;;;;;4.72;4.20;;;7.70;99.90;;;;;;5040957;28;20052;-75
2022/11/29 05:07:10;;;;;;;6.65;5.10;;;7.80;99.90;;;;;;5050242;28;20083;-74
2022/11/29 05:09:49;;;;;;;7.78;5.97;;;7.70;99.90;;;;;;5047397;28;20384;-75
2022/11/29 05:12:16;;;;;;;5.22;4.15;;;7.60;99.90;;;;;;5047623;28;20092;-75
2022/11/29 05:15:20;;;;;;;5.75;4.97;;;7.70;99.90;;;;;;5067577;28;20048;-74
2022/11/29 05:17:59;;;;;;;6.47;4.90;;;7.70;99.90;;;;;;5067507;28;20060;-75
2022/11/29 05:20:48;;;;;;;7.50;5.32;;;7.70;99.90;;;;;;5068662;28;20636;-74
2022/11/29 05:23:21;;;;;;;6.55;4.95;;;7.60;99.90;;;;;;5067246;28;20058;-74
2022/11/29 05:26:35;;;;;;;8.05;5.88;;;7.70;99.90;;;;;;5067791;28;20051;-75
2022/11/29 05:29:05;;;;;;;7.63;5.27;;;7.60;99.90;;;;;;5049326;28;20072;-74
2022/11/29 05:31:41;;;;;;;8.15;5.90;;;7.60;99.90;;;;;;5047534;28;20142;-75
2022/11/29 05:34:47;;;;;;;7.55;4.57;;;7.60;99.90;;;;;;5066588;28;20448;-74
2022/11/29 05:37:20;;;;;;;7.40;4.80;;;7.60;99.90;;;;;;5066823;28;20048;-76
2022/11/29 05:39:51;;;;;;;;;;;7.60;99.90;;;;;;5050244;28;20085;-75
2022/11/29 05:42:52;;;;;;;8.30;5.25;;;7.60;99.90;;;;;;5049996;28;19920;-74
2022/11/29 05:45:55;;;;;;;5.88;4.50;;;7.50;99.90;;;;;;5047120;28;20044;-74
2022/11/29 05:48:44;;;;;;;5.78;4.68;;;7.50;99.90;;;;;;5052539;28;20059;-74
2022/11/29 05:51:25;;;;;;;5.65;4.03;;;7.50;99.90;;;;;;5045178;28;20159;-76
2022/11/29 05:54:21;;;;;;;6.22;4.93;;;7.50;99.90;;;;;;5054057;28;20128;-76
2022/11/29 05:56:57;;;;;;;7.93;5.03;;;7.50;99.90;;;;;;5060449;28;20127;-76
2022/11/29 05:59:26;;;;;;;7.28;4.95;;;7.50;99.90;;;;;;5064403;28;20048;-75
2022/11/29 06:02:14;;;;;;;6.40;5.13;;;7.50;99.90;;;;;;5060617;28;20055;-75
2022/11/29 06:05:19;;;;;;;5.60;3.90;;;7.50;99.90;;;;;;5046170;28;20052;-76
2022/11/29 06:07:57;;;;;;;5.65;3.88;;;7.50;99.90;;;;;;5010179;28;20136;-77
2022/11/29 06:10:26;;;;;;;5.70;4.68;;;7.60;99.90;;;;;;5041808;28;20056;-76
2022/11/29 06:13:07;;;;;;;7.22;5.10;;;7.50;99.90;;;;;;5061580;28;20048;-76
2022/11/29 06:16:25;;;;;;;6.35;4.95;;;7.50;99.90;;;;;;5062532;28;20048;-76
2022/11/29 06:19:15;;;;;;;5.50;4.43;;;7.50;99.90;;;;;;5024775;28;20049;-75
2022/11/29 06:22:10;;;;;;;8.02;6.05;;;7.50;99.90;;;;;;5076935;28;20048;-75
2022/11/29 06:24:40;;;;;;;5.45;4.38;;;7.50;99.90;;;;;;5048667;28;20044;-75
2022/11/29 06:27:18;;;;;;;4.50;3.63;;;7.50;99.90;;;;;;5077128;28;20113;-75
2022/11/29 06:30:08;;;;;;;4.70;3.30;;;7.50;99.90;;;;;;5043511;28;20087;-77
2022/11/29 06:33:00;;;;;;;3.53;2.72;;;7.50;99.90;;;;;;5053271;28;20531;-78
2022/11/29 06:35:46;;;;;;;4.78;3.33;;;7.50;99.90;;;;;;5060799;28;20044;-78
2022/11/29 06:38:23;;;;;;;4.72;4.22;;;7.50;99.90;;;;;;5051964;28;20145;-79
2022/11/29 06:40:51;;;;;;;4.40;3.28;;;7.50;99.90;;;;;;5045698;28;20368;-78
2022/11/29 06:43:24;;;;;;;4.35;3.65;;;7.50;99.90;;;;;;5061570;28;20052;-78
2022/11/29 06:45:53;;;;;;;3.85;3.10;;;7.50;99.90;;;;;;5043857;28;20480;-78
2022/11/29 06:48:25;;;;;;;3.35;2.60;;;7.50;99.90;;;;;;5037276;28;20060;-78
2022/11/29 06:51:16;;;;;;;4.72;3.60;;;7.50;99.90;;;;;;5051004;28;20265;-78
2022/11/29 06:54:01;;;;;;;4.72;3.40;;;7.50;99.90;;;;;;5061216;28;20418;-78
2022/11/29 06:56:34;;;;;;;4.57;4.07;;;7.50;99.90;;;;;;5062302;28;20044;-78
2022/11/29 06:59:13;;;;;;;6.13;4.65;;;7.40;99.90;;;;;;5057877;28;20055;-77
2022/11/29 07:01:56;;;;;;;5.88;4.20;;;7.40;99.90;;;;;;5021615;28;20366;-78
2022/11/29 07:04:31;;;;;;;5.97;4.88;;;7.30;99.90;;;;;;5040298;28;20151;-78
2022/11/29 07:06:58;;;;;;;5.20;4.00;;;7.30;99.90;;;;;;5055843;28;20056;-78
2022/11/29 07:09:27;;;;;;;6.28;4.78;;;7.30;99.90;;;;;;5056596;28;20041;-74
2022/11/29 07:11:54;;;;;;;4.38;3.35;;;7.30;99.90;;;;;;5066716;28;20147;-74
2022/11/29 07:14:21;;;;;;;5.30;3.35;;;7.30;99.90;;;;;;5060549;28;20048;-74
2022/11/29 07:17:00;;;;;;;4.38;3.58;;;7.30;99.90;;;;;;5064505;28;20487;-75
2022/11/29 07:19:39;;;;;;;5.03;3.47;;;7.30;99.90;;;;;;5059929;28;20054;-74
2022/11/29 07:22:44;;;;;;;4.85;4.03;;;7.40;99.90;;;;;;5063342;28;20098;-74
2022/11/29 07:25:40;;;;;;;4.63;4.13;;;7.40;99.90;;;;;;5060008;28;20552;-74
2022/11/29 07:28:37;;;;;;;5.85;4.40;;;7.30;99.90;;;;;;5062162;28;20123;-75
2022/11/29 07:31:12;;;;;;;5.43;4.10;;;7.30;99.90;;;;;;5064994;28;20096;-75
2022/11/29 07:33:54;;;;;;;6.10;4.68;;;7.30;99.90;;;;;;5063483;28;20395;-75
2022/11/29 07:36:42;;;;;;;5.93;4.35;;;7.30;99.90;;;;;;5064699;28;20049;-75
2022/11/29 07:39:17;;;;;;;5.18;4.10;;;7.30;99.90;;;;;;5064029;28;20048;-74
2022/11/29 07:42:14;;;;;;;5.55;4.35;;;7.30;99.90;;;;;;5064081;28;20044;-75
2022/11/29 07:44:53;;;;;;;5.60;4.63;;;7.30;99.90;;;;;;5063351;28;20048;-75
2022/11/29 07:47:20;;;;;;;5.00;3.55;;;7.30;99.90;;;;;;5065633;28;20053;-74
2022/11/29 07:49:47;;;;;;;4.75;3.40;;;7.30;99.90;;;;;;5064690;28;20044;-74
2022/11/29 07:52:14;;;;;;;4.28;3.50;;;7.30;99.90;;;;;;5063719;28;20078;-75
2022/11/29 07:54:41;;;;;;;5.05;3.97;;;7.30;99.90;;;;;;5046590;28;20052;-74
2022/11/29 07:57:08;;;;;;;5.30;3.70;;;7.30;99.90;;;;;;5061026;28;20048;-74
2022/11/29 07:59:35;;;;;;;5.45;4.10;;;7.30;99.90;;;;;;5026519;28;20052;-74
2022/11/29 08:02:01;;;;;;;4.88;4.20;;;7.30;99.90;;;;;;5060811;28;20159;-74
2022/11/29 08:04:45;;;;;;;4.95;3.15;;;7.30;99.90;;;;;;5059884;28;20052;-75
2022/11/29 08:07:12;;;;;;;5.82;3.95;;;7.30;99.90;;;;;;5061422;28;20140;-74
2022/11/29 08:09:39;;;;;;;6.13;4.85;;;7.30;99.90;;;;;;5064833;28;20385;-75
2022/11/29 08:12:06;;;;;;;6.10;4.95;;;7.30;99.90;;;;;;5065011;28;20056;-74
2022/11/29 08:14:32;;;;;;;7.80;5.45;;;7.30;99.90;;;;;;5062566;28;20465;-75
2022/11/29 08:16:59;;;;;;;7.20;5.63;;;7.30;99.90;;;;;;5030945;28;20059;-75
2022/11/29 08:19:26;;;;;;;6.82;6.00;;;7.30;99.90;;;;;;5062586;28;20052;-74
2022/11/29 08:21:53;;;;;;;5.57;4.80;;;7.30;99.90;;;;;;5063397;28;20120;-75
2022/11/29 08:24:19;;;;;;;6.72;4.40;;;7.30;99.90;;;;;;5063444;28;20079;-75
2022/11/29 08:26:46;;;;;;;5.40;4.65;;;7.30;99.90;;;;;;5064215;28;20056;-75
2022/11/29 08:29:13;;;;;;;4.82;4.07;;;7.30;99.90;;;;;;5064116;28;20392;-74
2022/11/29 08:31:39;;;;;;;4.60;3.85;;;7.30;99.90;;;;;;5063679;28;20136;-74
2022/11/29 08:34:06;;;;;;;3.65;3.08;;;7.30;99.90;;;;;;5062637;28;20126;-74
2022/11/29 08:36:33;;;;;;;4.03;3.30;;;7.40;99.90;;;;;;5046314;28;20055;-75
2022/11/29 08:39:03;;;;;;;4.38;3.35;;;7.40;99.90;;;;;;5064989;28;20398;-74
2022/11/29 08:41:35;;;;;;;4.85;3.67;;;7.40;99.90;;;;;;5064432;28;20158;-74
2022/11/29 08:44:03;;;;;;;5.50;3.15;;;7.40;99.90;;;;;;5063243;28;20487;-75
2022/11/29 08:49:15;;;;;;;5.22;4.35;;;7.40;99.90;;;;;;5062625;28;20067;-74
2022/11/29 08:51:42;;;;;;;5.82;4.72;;;7.40;99.90;;;;;;5063515;28;20052;-75
2022/11/29 08:54:08;;;;;;;5.55;4.63;;;7.40;99.90;;;;;;5062505;28;20159;-75
2022/11/29 08:56:36;;;;;;;4.68;3.53;;;7.40;99.90;;;;;;5030055;28;20072;-75
2022/11/29 08:59:22;;;;;;;4.60;3.50;;;7.50;99.90;;;;;;5048412;28;20048;-75
2022/11/29 09:01:49;;;;;;;4.72;3.45;;;7.50;99.90;;;;;;5046605;28;20051;-75
2022/11/29 09:04:16;;;;;;;4.35;3.55;;;7.50;99.90;;;;;;5044409;28;20196;-74
2022/11/29 09:06:43;;;;;;;5.95;4.43;;;7.50;99.90;;;;;;5073010;28;20093;-75
2022/11/29 09:09:10;;;;;;;4.95;4.00;;;7.50;99.90;;;;;;5061511;28;20075;-75
2022/11/29 09:11:36;;;;;;;5.03;4.07;;;7.50;99.90;;;;;;5055660;28;20053;-74
2022/11/29 09:14:06;;;;;;;4.20;3.30;;;7.40;99.90;;;;;;5054169;28;20044;-74
2022/11/29 09:16:34;;;;;;;4.15;3.38;;;7.40;99.90;;;;;;5058019;28;20045;-74
2022/11/29 09:19:01;;;;;;;4.13;3.35;;;7.50;99.90;;;;;;5056613;28;20052;-75
2022/11/29 09:21:29;;;;;;;3.42;2.83;;;7.50;99.90;;;;;;5039319;28;20060;-75
2022/11/29 09:23:58;;;;;;;3.30;2.45;;;7.50;99.90;;;;;;5039247;28;20071;-76
2022/11/29 09:26:29;;;;;;;2.83;2.10;;;7.60;99.90;;;;;;5035789;28;20491;-76
2022/11/29 09:29:00;;;;;;;2.95;2.55;;;7.60;99.90;;;;;;5034308;28;20056;-75
2022/11/29 09:31:27;;;;;;;2.70;2.20;;;7.60;99.90;;;;;;5019438;28;20146;-76
2022/11/29 09:33:54;;;;;;;2.65;2.05;;;7.60;99.90;;;;;;5039049;28;20131;-75
2022/11/29 09:36:21;;;;;;;3.72;2.40;;;7.70;99.90;;;;;;5047091;28;20067;-75
2022/11/29 09:38:54;;;;;;;2.55;2.03;;;7.70;99.90;;;;;;5050532;28;20055;-75
2022/11/29 09:41:31;;;;;;;3.30;2.60;;;7.70;99.90;;;;;;5039877;28;20453;-76
2022/11/29 09:44:14;;;;;;;3.25;2.55;;;7.80;99.90;;;;;;5043891;28;20044;-74
2022/11/29 09:47:11;;;;;;;3.40;2.72;;;7.70;99.90;;;;;;5059360;28;20040;-74
2022/11/29 09:49:47;;;;;;;3.38;2.63;;;7.70;99.90;;;;;;5042713;28;20052;-73
2022/11/29 09:52:36;;;;;;;3.17;2.42;;;7.70;99.90;;;;;;5044812;28;20040;-76
2022/11/29 09:55:27;;;;;;;3.22;2.42;;;7.80;99.90;;;;;;5072158;28;20045;-76
2022/11/29 09:57:54;;;;;;;2.50;2.22;;;7.90;99.90;;;;;;5080517;28;20155;-76
2022/11/29 10:00:21;;;;;;;2.65;1.90;;;7.90;99.90;;;;;;5071938;28;20088;-76
2022/11/29 10:02:51;;;;;;;2.45;1.90;;;7.90;99.90;;;;;;5072226;28;20055;-76
2022/11/29 10:05:25;;;;;;;2.30;1.80;;;7.90;99.90;;;;;;5077297;28;20093;-75
2022/11/29 10:08:06;;;;;;;2.83;2.17;;;8.00;99.90;;;;;;5067436;28;20056;-76
2022/11/29 10:10:42;;;;;;;2.83;2.40;;;7.90;99.90;;;;;;5072540;28;20044;-75
2022/11/29 10:13:18;;;;;;;2.58;2.20;;;7.90;99.90;;;;;;5058755;28;20128;-74
2022/11/29 10:15:47;;;;;;;3.55;2.78;;;8.00;99.90;;;;;;5079621;28;20062;-75
2022/11/29 10:18:22;;;;;;;3.17;2.70;;;7.90;99.90;;;;;;5077200;28;20101;-74
2022/11/29 10:20:49;;;;;;;3.83;3.33;;;7.90;99.90;;;;;;5043348;28;20045;-75
2022/11/29 10:23:22;;;;;;;3.40;2.92;;;7.90;99.90;;;;;;5058439;28;20052;-74
2022/11/29 10:25:53;;;;;;;3.43;2.97;;;7.90;99.90;;;;;;5063533;28;20051;-74
2022/11/29 10:28:22;;;;;;;4.03;3.00;;;7.90;99.90;;;;;;5064962;28;20309;-77
2022/11/29 10:30:51;;;;;;;4.32;3.60;;;7.90;99.90;;;;;;5063863;28;20048;-77
2022/11/29 10:33:20;;;;;;;4.82;3.88;;;7.90;99.90;;;;;;5060330;28;20060;-76
2022/11/29 10:35:48;;;;;;;3.95;3.55;;;7.90;99.90;;;;;;5065695;28;20402;-76
2022/11/29 10:38:14;;;;;;;3.85;3.28;;;8.00;99.90;;;;;;5071576;28;20044;-77
2022/11/29 10:41:02;;;;;;;3.53;2.92;;;8.10;99.90;;;;;;5078682;28;20051;-78
2022/11/29 10:43:29;;;;;;;2.65;2.35;;;8.00;99.90;;;;;;5065610;28;20052;-77
2022/11/29 10:45:56;;;;;;;3.03;2.63;;;8.00;99.90;;;;;;5044875;28;20048;-75
2022/11/29 10:48:27;;;;;;;3.22;2.70;;;8.00;99.90;;;;;;5064491;28;20129;-76
2022/11/29 10:50:54;;;;;;;5.85;3.63;;;8.10;99.90;;;;;;5059735;28;20045;-76
2022/11/29 10:53:26;;;;;;;3.28;2.97;;;8.00;99.90;;;;;;5059757;28;20056;-77
2022/11/29 10:56:13;;;;;;;3.15;2.83;;;8.00;99.90;;;;;;5062549;28;20144;-88
2022/11/29 10:59:03;;;;;;;3.20;2.28;;;8.10;99.90;;;;;;5077055;28;20411;-84
2022/11/29 11:01:31;;;;;;;3.20;2.20;;;8.20;99.90;;;;;;5049986;28;20091;-76
2022/11/29 11:03:59;;;;;;;2.90;2.60;;;8.20;99.90;;;;;;5066038;28;20795;-76
2022/11/29 11:06:27;;;;;;;4.45;3.30;;;8.20;99.90;;;;;;5048104;28;20063;-75
2022/11/29 11:08:55;;;;;;;4.40;3.60;;;8.20;99.90;;;;;;5064037;28;20058;-76
2022/11/29 11:11:31;;;;;;;4.25;3.85;;;8.10;99.90;;;;;;5046059;28;20164;-77
2022/11/29 11:14:18;;;;;;;4.75;3.97;;;8.10;99.90;;;;;;5055453;28;20621;-76
2022/11/29 11:16:45;;;;;;;5.32;3.67;;;8.10;99.90;;;;;;5080809;28;20514;-76
2022/11/29 11:19:26;;;;;;;3.20;2.83;;;8.10;99.90;;;;;;5063019;28;20056;-76
2022/11/29 11:21:55;;;;;;;4.00;3.60;;;8.10;99.90;;;;;;5070670;28;20058;-76
2022/11/29 11:24:27;;;;;;;4.00;3.15;;;8.20;99.90;;;;;;5062518;28;20078;-75
2022/11/29 11:26:54;;;;;;;5.45;3.40;;;8.20;99.90;;;;;;5078080;28;20335;-76
2022/11/29 11:29:25;;;;;;;3.95;3.05;;;8.20;99.90;;;;;;5048873;28;20123;-75
2022/11/29 11:31:56;;;;;;;3.33;3.03;;;8.20;99.90;;;;;;5054859;28;20151;-75
2022/11/29 11:34:27;;;;;;;4.60;4.05;;;8.20;99.90;;;;;;5049101;28;20048;-78
2022/11/29 11:37:19;;;;;;;4.35;3.95;;;8.10;99.90;;;;;;5068662;28;20076;-77
2022/11/29 11:39:47;;;;;;;5.07;3.90;;;8.10;99.90;;;;;;5093430;28;20213;-76
2022/11/29 11:42:37;;;;;;;4.78;3.70;;;8.10;99.90;;;;;;5024159;28;20132;-75
2022/11/29 11:45:10;;;;;;;4.38;3.80;;;8.00;99.90;;;;;;5068946;28;20123;-76
2022/11/29 11:47:42;;;;;;;5.22;4.28;;;8.10;99.90;;;;;;5063030;28;20041;-75
2022/11/29 11:50:29;;;;;;;4.85;3.88;;;8.00;99.90;;;;;;5044531;28;20167;-74
2022/11/29 11:52:57;;;;;;;5.18;4.32;;;8.10;99.90;;;;;;5040099;28;20135;-75
2022/11/29 11:55:25;;;;;;;4.93;4.03;;;8.10;99.90;;;;;;5052819;28;20101;-75
2022/11/29 11:58:12;;;;;;;5.15;4.20;;;8.10;99.90;;;;;;5069636;28;20079;-91
2022/11/29 12:00:47;;;;;;;6.20;4.88;;;8.20;99.90;;;;;;5058889;28;20223;-76
2022/11/29 12:03:51;;;;;;;4.97;4.00;;;8.10;99.90;;;;;;5057546;28;20071;-76
2022/11/29 12:06:36;;;;;;;4.65;3.67;;;8.10;99.90;;;;;;5048878;28;20055;-75
2022/11/29 12:09:21;;;;;;;5.70;4.40;;;8.10;99.90;;;;;;5060561;28;20053;-76
2022/11/29 12:12:37;;;;;;;4.45;3.55;;;8.20;99.90;;;;;;5057908;28;20049;-75
2022/11/29 12:15:15;;;;;;;5.07;4.50;;;8.30;99.90;;;;;;5052507;28;20048;-75
2022/11/29 12:17:49;;;;;;;4.15;3.38;;;8.20;99.90;;;;;;5056323;28;20052;-75
2022/11/29 12:20:21;;;;;;;4.70;3.55;;;8.30;99.90;;;;;;5043915;28;20076;-75
2022/11/29 12:23:08;;;;;;;5.07;3.97;;;8.30;99.90;;;;;;5044495;28;20147;-75
2022/11/29 12:25:57;;;;;;;4.47;4.00;;;8.30;99.90;;;;;;5052890;28;20459;-75
2022/11/29 12:28:33;;;;;;;5.47;4.28;;;8.30;99.90;;;;;;5063893;28;20056;-75
2022/11/29 12:31:10;;;;;;;5.00;4.38;;;8.30;99.90;;;;;;5049525;28;20458;-76
2022/11/29 12:34:15;;;;;;;6.45;5.53;;;8.30;99.90;;;;;;5062808;28;20071;-75
2022/11/29 12:37:17;;;;;;;5.95;4.55;;;8.30;99.90;;;;;;5043645;28;20064;-75
2022/11/29 12:39:57;;;;;;;5.22;4.35;;;8.30;99.90;;;;;;5046717;28;20292;-75
2022/11/29 12:42:39;;;;;;;4.93;3.75;;;8.40;99.90;;;;;;5037923;28;20094;-75
2022/11/29 12:45:45;;;;;;;4.20;3.42;;;8.40;99.90;;;;;;5056594;28;20067;-75
2022/11/29 12:48:30;;;;;;;4.40;3.58;;;8.40;99.90;;;;;;5053253;28;20441;-76
2022/11/29 12:51:12;;;;;;;4.38;3.65;;;8.50;99.90;;;;;;5055987;28;20049;-75
2022/11/29 12:54:09;;;;;;;4.45;3.60;;;8.50;99.90;;;;;;5051669;28;20169;-76
2022/11/29 12:56:43;;;;;;;3.75;3.15;;;8.50;99.90;;;;;;5062081;28;20048;-76
2022/11/29 12:59:10;;;;;;;3.38;2.78;;;8.50;99.90;;;;;;5061568;28;20064;-75
2022/11/29 13:01:49;;;;;;;3.60;2.90;;;8.50;99.90;;;;;;5064041;28;20066;-75
2022/11/29 13:04:25;;;;;;;3.78;2.97;;;8.50;99.90;;;;;;5061063;28;20064;-76
2022/11/29 13:06:57;;;;;;;3.60;2.85;;;8.40;99.90;;;;;;5061997;28;20336;-75
2022/11/29 13:09:42;;;;;;;2.50;2.05;;;8.40;99.90;;;;;;5062085;28;20044;-76
2022/11/29 13:12:19;;;;;;;3.45;2.72;;;8.40;99.90;;;;;;5061969;28;20404;-76
2022/11/29 13:14:57;;;;;;;3.10;2.40;;;8.50;99.90;;;;;;5061176;28;20048;-75
2022/11/29 13:17:37;;;;;;;2.08;1.88;;;8.50;99.90;;;;;;5046198;28;20155;-76
2022/11/29 13:20:42;;;;;;;2.83;2.05;;;8.50;99.90;;;;;;5044818;28;20071;-76
2022/11/29 13:23:16;;;;;;;2.30;1.80;;;8.50;99.90;;;;;;5059303;28;20119;-76
2022/11/29 13:25:49;;;;;;;3.65;2.53;;;8.50;99.90;;;;;;5057490;28;20052;-75
2022/11/29 13:28:27;;;;;;;3.17;2.33;;;8.50;99.90;;;;;;5051400;28;20052;-76
2022/11/29 13:30:59;;;;;;;2.50;2.10;;;8.40;99.90;;;;;;5033357;28;20056;-76
2022/11/29 13:33:52;;;;;;;2.25;1.90;;;8.50;99.90;;;;;;5064450;28;20044;-76
2022/11/29 13:36:21;;;;;;;2.92;2.00;;;8.50;99.90;;;;;;5049256;28;20048;-76
2022/11/29 13:39:10;;;;;;;2.85;2.03;;;8.60;99.90;;;;;;5066075;28;20117;-75
2022/11/29 13:41:57;;;;;;;3.65;2.53;;;8.60;99.90;;;;;;5065469;28;20048;-80
2022/11/29 13:44:39;;;;;;;2.85;2.40;;;8.50;99.90;;;;;;5062403;28;20082;-76
2022/11/29 13:47:12;;;;;;;3.88;2.58;;;8.40;99.90;;;;;;5062393;28;20076;-77
2022/11/29 13:50:02;;;;;;;5.00;3.47;;;8.30;99.90;;;;;;5071320;28;20079;-76
2022/11/29 13:52:46;;;;;;;4.18;3.28;;;8.20;99.90;;;;;;5064724;28;20075;-76
2022/11/29 13:55:14;;;;;;;3.80;3.30;;;8.20;99.90;;;;;;5065650;28;20064;-76